Time;durP1;ratioP1;P1;durP2;ratioP2;P2;SDS_P1;SDS_P2;PMS_P1;PMS_P2;Temp;Humidity;BMP_temperature;BMP_pressure;BME280_temperature;BME280_humidity;BME280_pressure;Samples;Min_cycle;Max_cycle;Signal;HPM_P1;HPM_P2
2021/12/15 00:02:27;;;;;;;56.22;29.73;;;;;;;-1.63;100.00;101404.94;5075094;28;20079;-72
2021/12/15 00:04:57;;;;;;;51.70;28.20;;;;;;;-1.70;100.00;101407.50;5075712;28;20119;-72
2021/12/15 00:07:27;;;;;;;52.00;27.73;;;;;;;-1.65;100.00;101392.69;5075426;28;20052;-73
2021/12/15 00:09:55;;;;;;;58.38;29.88;;;;;;;-1.65;100.00;101396.19;5075487;28;20045;-72
2021/12/15 00:12:24;;;;;;;54.88;28.70;;;;;;;-1.74;100.00;101397.03;5075140;28;20041;-73
2021/12/15 00:14:53;;;;;;;59.38;30.42;;;;;;;-1.69;100.00;101394.41;5075441;28;20087;-72
2021/12/15 00:17:23;;;;;;;57.97;29.95;;;;;;;-1.64;100.00;101392.72;5074556;28;20051;-74
2021/12/15 00:19:52;;;;;;;65.43;32.20;;;;;;;-1.66;100.00;101393.56;5075322;28;20041;-77
2021/12/15 00:22:22;;;;;;;60.92;31.50;;;;;;;-1.69;100.00;101385.69;5075147;28;20620;-76
2021/12/15 00:24:50;;;;;;;59.58;30.30;;;;;;;-1.60;100.00;101391.88;5075432;28;20217;-76
2021/12/15 00:27:19;;;;;;;62.17;30.88;;;;;;;-1.53;100.00;101400.66;5074677;28;20071;-76
2021/12/15 00:29:47;;;;;;;58.08;29.80;;;;;;;-1.62;100.00;101391.00;5075379;28;20094;-75
2021/12/15 00:32:15;;;;;;;56.45;30.00;;;;;;;-1.59;100.00;101401.47;5074495;28;20045;-74
2021/12/15 00:34:45;;;;;;;63.80;31.35;;;;;;;-1.59;100.00;101390.13;5074963;28;20048;-75
2021/12/15 00:37:13;;;;;;;62.58;32.08;;;;;;;-1.56;100.00;101393.63;5074417;28;20101;-72
2021/12/15 00:39:43;;;;;;;58.25;29.75;;;;;;;-1.58;100.00;101394.50;5073796;28;20049;-71
2021/12/15 00:42:12;;;;;;;60.47;30.38;;;;;;;-1.51;100.00;101398.94;5074681;28;20051;-73
2021/12/15 00:44:41;;;;;;;55.30;29.70;;;;;;;-1.43;100.00;101405.09;5074722;28;20048;-71
2021/12/15 00:47:10;;;;;;;52.20;28.08;;;;;;;-1.17;100.00;101411.34;5074573;28;20059;-71
2021/12/15 00:49:39;;;;;;;55.70;28.60;;;;;;;-1.34;100.00;101405.16;5074724;28;20045;-71
2021/12/15 00:52:09;;;;;;;51.38;27.15;;;;;;;-1.18;100.00;101411.34;5073480;28;20478;-71
2021/12/15 00:54:38;;;;;;;54.22;27.67;;;;;;;-1.16;100.00;101410.53;5074387;28;20048;-71
2021/12/15 00:57:07;;;;;;;51.47;27.58;;;;;;;-1.21;100.00;101399.13;5073207;28;20049;-75
2021/12/15 00:59:36;;;;;;;59.00;27.73;;;;;;;-1.32;100.00;101407.78;5074327;28;20052;-74
2021/12/15 01:02:05;;;;;;;53.63;27.55;;;;;;;-1.30;100.00;101408.66;5074302;28;20550;-75
2021/12/15 01:04:34;;;;;;;51.70;27.33;;;;;;;-1.42;100.00;101403.34;5074155;28;20049;-75
2021/12/15 01:07:07;;;;;;;53.33;28.83;;;;;;;-1.46;100.00;101407.66;5074309;28;20045;-74
2021/12/15 01:09:40;;;;;;;;;;;;;;;-1.49;100.00;101412.88;5074576;28;20440;-73
2021/12/15 01:12:20;;;;;;;52.28;25.88;;;;;;;-1.52;100.00;101413.75;5074481;28;20373;-72
2021/12/15 01:20:34;;;;;;;55.47;27.08;;;;;;;-1.52;100.00;101418.97;5072653;28;20044;-73
2021/12/15 01:23:07;;;;;;;49.42;26.48;;;;;;;-1.54;100.00;101414.63;5073838;28;20123;-72
2021/12/15 01:25:37;;;;;;;;;;;;;;;-1.58;100.00;101418.94;5074220;28;20086;-75
2021/12/15 01:28:07;;;;;;;48.63;25.75;;;;;;;-1.59;100.00;101411.06;5072972;28;19920;-75
2021/12/15 01:30:40;;;;;;;56.58;27.65;;;;;;;-1.54;100.00;101412.00;5073048;28;20044;-75
2021/12/15 01:33:10;;;;;;;50.35;26.92;;;;;;;-1.60;100.00;101404.09;5073971;28;20041;-75
2021/12/15 01:35:41;;;;;;;51.33;27.20;;;;;;;-1.66;100.00;101397.06;5073588;28;20391;-75
2021/12/15 01:38:10;;;;;;;47.90;25.58;;;;;;;-1.66;100.00;101398.78;5073833;28;20048;-75
2021/12/15 01:40:44;;;;;;;51.13;26.73;;;;;;;-1.70;100.00;101402.25;5073392;28;20056;-75
2021/12/15 01:43:18;;;;;;;54.72;26.92;;;;;;;-1.80;100.00;101417.00;5073808;28;20123;-74
2021/12/15 01:48:36;;;;;;;52.28;26.45;;;;;;;-1.89;100.00;101415.19;5073440;28;20044;-74
2021/12/15 01:51:08;;;;;;;50.95;26.08;;;;;;;-1.97;100.00;101423.81;5073362;28;20547;-74
2021/12/15 01:53:37;;;;;;;51.53;26.75;;;;;;;-1.98;100.00;101419.44;5073099;28;20051;-73
2021/12/15 01:56:08;;;;;;;51.55;25.48;;;;;;;-2.07;100.00;101418.50;5073427;28;20093;-72
2021/12/15 01:58:38;;;;;;;51.03;26.65;;;;;;;-2.06;100.00;101412.41;5072812;28;20040;-75
2021/12/15 02:01:09;;;;;;;49.80;26.58;;;;;;;-2.12;100.00;101420.19;5073667;28;20443;-75
2021/12/15 02:03:40;;;;;;;52.60;26.73;;;;;;;-2.18;100.00;101425.34;5073208;28;20437;-75
2021/12/15 02:06:13;;;;;;;52.05;27.48;;;;;;;-2.21;100.00;101429.69;5073472;28;20052;-73
2021/12/15 02:08:43;;;;;;;55.47;27.92;;;;;;;-2.24;100.00;101416.56;5073297;28;20037;-74
2021/12/15 02:11:11;;;;;;;53.53;27.80;;;;;;;-2.29;100.00;101411.31;5073433;28;20170;-74
2021/12/15 02:13:41;;;;;;;55.78;27.10;;;;;;;-2.28;100.00;101413.06;5073004;28;20481;-74
2021/12/15 02:16:09;;;;;;;54.97;28.33;;;;;;;-2.24;100.00;101408.72;5073473;28;20456;-74
2021/12/15 02:18:42;;;;;;;53.95;27.60;;;;;;;-2.28;100.00;101406.94;5073182;28;20461;-74
2021/12/15 02:21:15;;;;;;;58.30;30.05;;;;;;;-2.30;100.00;101406.94;5072862;28;20477;-73
2021/12/15 02:23:49;;;;;;;55.92;28.52;;;;;;;-2.35;100.00;101411.22;5072962;28;20032;-73
2021/12/15 02:26:23;;;;;;;53.92;28.23;;;;;;;-2.33;100.00;101423.44;5071701;28;20053;-74
2021/12/15 02:28:55;;;;;;;55.17;28.35;;;;;;;-2.33;100.00;101405.16;5073323;28;20070;-73
2021/12/15 02:31:37;;;;;;;55.63;29.10;;;;;;;-2.26;100.00;101406.09;5072470;28;20049;-75
2021/12/15 02:34:21;;;;;;;51.67;28.60;;;;;;;-2.23;100.00;101407.84;5073337;28;20048;-75
2021/12/15 02:37:15;;;;;;;55.50;28.38;;;;;;;-2.34;100.00;101392.94;5073332;28;20054;-75
2021/12/15 02:39:46;;;;;;;52.55;28.15;;;;;;;-2.23;100.00;101402.63;5072718;28;20060;-74
2021/12/15 02:42:15;;;;;;;57.10;29.38;;;;;;;-2.30;100.00;101406.94;5077021;28;20063;-74
2021/12/15 02:44:45;;;;;;;56.20;29.48;;;;;;;-2.31;100.00;101408.69;5077064;28;20055;-75
2021/12/15 02:47:15;;;;;;;53.75;28.17;;;;;;;-2.26;100.00;101410.44;5077154;28;20075;-75
2021/12/15 02:49:44;;;;;;;52.15;28.42;;;;;;;-2.31;100.00;101408.69;5077844;28;20051;-74
2021/12/15 02:52:14;;;;;;;57.88;29.67;;;;;;;-2.30;100.00;101406.94;5078412;28;20064;-74
2021/12/15 02:54:42;;;;;;;56.20;28.30;;;;;;;-2.32;100.00;101411.25;5076401;28;20044;-74
2021/12/15 02:57:13;;;;;;;58.33;27.98;;;;;;;-2.35;100.00;101396.41;5076963;28;20041;-74
2021/12/15 02:59:52;;;;;;;55.03;28.30;;;;;;;-2.31;100.00;101408.69;5076229;28;20072;-75
2021/12/15 03:05:17;;;;;;;54.17;26.90;;;;;;;-2.27;100.00;101413.94;5073197;28;20054;-75
2021/12/15 03:07:59;;;;;;;51.45;27.35;;;;;;;-2.24;100.00;101400.88;5076805;28;20367;-75
2021/12/15 03:15:59;;;;;;;51.58;27.38;;;;;;;-2.39;100.00;101378.97;5076319;28;20402;-74
2021/12/15 03:18:29;;;;;;;54.60;27.13;;;;;;;-2.41;100.00;101382.44;5076218;28;20040;-73
2021/12/15 03:21:09;;;;;;;58.28;28.58;;;;;;;-2.40;100.00;101384.19;5076469;28;20044;-73
2021/12/15 03:23:46;;;;;;;55.50;28.20;;;;;;;-2.42;100.00;101383.25;5076188;28;20040;-73
2021/12/15 03:26:19;;;;;;;53.67;27.15;;;;;;;-2.39;100.00;101378.09;5076075;28;20047;-73
2021/12/15 03:34:46;;;;;;;55.05;27.90;;;;;;;-2.41;100.00;101388.53;5076262;28;20044;-73
2021/12/15 03:37:26;;;;;;;57.30;28.58;;;;;;;-2.37;100.00;101390.31;5076084;28;20068;-73
2021/12/15 03:39:59;;;;;;;51.67;27.10;;;;;;;-2.33;100.00;101384.25;5076095;28;20061;-73
2021/12/15 03:42:31;;;;;;;55.97;26.23;;;;;;;-2.26;100.00;101379.09;5075592;28;20397;-73
2021/12/15 03:45:00;;;;;;;51.58;27.13;;;;;;;-2.27;100.00;101379.94;5075899;28;20143;-72
2021/12/15 03:47:33;;;;;;;52.95;27.25;;;;;;;-2.35;100.00;101385.09;5075539;28;20049;-72
2021/12/15 03:50:05;;;;;;;53.13;27.00;;;;;;;-2.35;100.00;101390.31;5074800;28;20448;-71
2021/12/15 03:52:34;;;;;;;52.92;26.90;;;;;;;-2.38;100.00;101390.28;5075064;28;20140;-72
2021/12/15 03:55:05;;;;;;;55.00;27.98;;;;;;;-2.44;100.00;101380.63;5075695;28;20127;-72
2021/12/15 03:57:34;;;;;;;55.08;27.25;;;;;;;-2.33;100.00;101381.63;5075539;28;20052;-73
2021/12/15 04:00:04;;;;;;;51.47;26.95;;;;;;;-2.23;100.00;101374.75;5075652;28;20040;-72
2021/12/15 04:02:34;;;;;;;53.38;26.10;;;;;;;-2.13;100.00;101375.72;5075436;28;20405;-73
2021/12/15 04:05:03;;;;;;;50.03;25.80;;;;;;;-2.20;100.00;101381.78;5075539;28;20048;-73
2021/12/15 04:07:32;;;;;;;44.65;24.75;;;;;;;-1.98;100.00;101395.91;5075410;28;20041;-71
2021/12/15 04:10:00;;;;;;;50.90;25.33;;;;;;;-2.20;100.00;101387.88;5075397;28;20040;-73
2021/12/15 04:12:30;;;;;;;51.35;26.40;;;;;;;-2.14;100.00;101395.75;5075160;28;20040;-73
2021/12/15 04:15:18;;;;;;;51.72;27.45;;;;;;;-2.26;100.00;101397.38;5075437;28;20135;-72
2021/12/15 04:17:47;;;;;;;49.83;25.77;;;;;;;-2.28;100.00;101399.09;5075104;28;20044;-73
2021/12/15 04:20:19;;;;;;;51.22;25.98;;;;;;;-2.23;100.00;101394.78;5075160;28;20037;-72
2021/12/15 04:22:48;;;;;;;60.10;25.58;;;;;;;-2.35;100.00;101393.81;5074687;28;20114;-71
2021/12/15 04:25:21;;;;;;;50.08;25.92;;;;;;;-2.24;100.00;101393.91;5074829;28;20079;-72
2021/12/15 04:28:02;;;;;;;50.33;26.33;;;;;;;-2.18;100.00;101399.22;5075019;28;20036;-74
2021/12/15 04:30:31;;;;;;;50.33;24.75;;;;;;;-2.27;100.00;101408.69;5074832;28;20386;-74
2021/12/15 04:33:07;;;;;;;48.08;25.27;;;;;;;-2.25;100.00;101417.44;5075203;28;20045;-74
2021/12/15 04:35:37;;;;;;;50.70;25.52;;;;;;;-2.31;100.00;101426.09;5075078;28;20124;-72
2021/12/15 04:38:06;;;;;;;53.10;25.95;;;;;;;-2.32;100.00;101420.00;5075037;28;20136;-73
2021/12/15 04:40:36;;;;;;;52.20;26.02;;;;;;;-2.25;100.00;101422.66;5074444;28;20056;-73
2021/12/15 04:43:05;;;;;;;51.47;24.77;;;;;;;-2.25;100.00;101425.25;5074658;28;20478;-71
2021/12/15 04:45:34;;;;;;;49.50;25.98;;;;;;;-2.29;100.00;101426.09;5074272;28;20044;-75
2021/12/15 04:48:04;;;;;;;50.97;26.27;;;;;;;-2.31;100.00;101419.13;5074701;28;20048;-78
2021/12/15 04:50:33;;;;;;;48.88;25.00;;;;;;;-2.38;100.00;101427.75;5074648;28;20474;-76
2021/12/15 04:53:03;;;;;;;55.25;26.55;;;;;;;-2.39;100.00;101430.34;5074853;28;20044;-77
2021/12/15 04:55:33;;;;;;;46.85;25.05;;;;;;;-2.40;100.00;101431.22;5074359;28;20470;-77
2021/12/15 04:58:04;;;;;;;51.17;25.13;;;;;;;-2.41;100.00;101424.25;5074599;28;20045;-77
2021/12/15 05:00:37;;;;;;;47.88;25.95;;;;;;;-2.39;100.00;101412.94;5074218;28;20067;-73
2021/12/15 05:03:06;;;;;;;49.50;26.27;;;;;;;-2.38;100.00;101432.97;5074293;28;20051;-73
2021/12/15 05:05:35;;;;;;;53.17;25.73;;;;;;;-2.32;100.00;101443.50;5072871;28;20048;-74
2021/12/15 05:08:04;;;;;;;50.30;25.65;;;;;;;-2.17;100.00;101441.91;5074605;28;20136;-73
2021/12/15 05:10:33;;;;;;;49.70;24.85;;;;;;;-1.86;100.00;101450.94;5074034;28;20054;-74
2021/12/15 05:13:01;;;;;;;48.88;25.38;;;;;;;-1.79;100.00;101455.38;5074391;28;20071;-74
2021/12/15 05:15:30;;;;;;;49.55;24.33;;;;;;;-1.61;100.00;101454.66;5073862;28;20044;-72
2021/12/15 05:18:00;;;;;;;48.58;24.58;;;;;;;-1.68;100.00;101453.72;5074071;28;20049;-70
2021/12/15 05:20:28;;;;;;;48.50;25.80;;;;;;;-1.62;100.00;101442.44;5074057;28;20433;-72
2021/12/15 05:22:57;;;;;;;47.70;25.40;;;;;;;-1.66;100.00;101451.13;5073680;28;20068;-72
2021/12/15 05:25:25;;;;;;;44.83;24.60;;;;;;;-1.61;100.00;101459.91;5074176;28;20091;-74
2021/12/15 05:27:53;;;;;;;47.67;24.73;;;;;;;-1.32;100.00;101466.25;5073757;28;20485;-75
2021/12/15 05:30:24;;;;;;;50.55;25.13;;;;;;;-1.27;100.00;101461.91;5074012;28;20045;-74
2021/12/15 05:32:52;;;;;;;45.47;24.10;;;;;;;-1.22;100.00;101464.56;5073402;28;20036;-75
2021/12/15 05:35:24;;;;;;;49.40;24.95;;;;;;;-1.28;100.00;101461.91;5073936;28;20405;-72
2021/12/15 05:37:54;;;;;;;49.33;24.77;;;;;;;-1.17;100.00;101463.72;5073440;28;20048;-72
2021/12/15 05:40:23;;;;;;;44.85;23.67;;;;;;;-1.12;100.00;101465.50;5073643;28;20102;-71
2021/12/15 05:42:55;;;;;;;45.38;23.58;;;;;;;-1.25;100.00;101465.44;5073044;28;20535;-71
2021/12/15 05:45:25;;;;;;;47.28;25.10;;;;;;;-1.32;100.00;101479.34;5073677;28;20127;-71
2021/12/15 05:47:54;;;;;;;46.72;24.70;;;;;;;-1.24;100.00;101479.41;5073296;28;20075;-71
2021/12/15 05:50:24;;;;;;;45.45;24.05;;;;;;;-1.22;100.00;101489.00;5073634;28;20436;-71
2021/12/15 05:52:53;;;;;;;47.78;24.98;;;;;;;-1.29;100.00;101492.44;5073483;28;20397;-68
2021/12/15 05:55:22;;;;;;;46.15;23.52;;;;;;;-1.13;100.00;101489.94;5073490;28;20040;-68
2021/12/15 05:57:50;;;;;;;51.95;25.45;;;;;;;-1.14;100.00;101496.94;5072905;28;20044;-68
2021/12/15 06:00:24;;;;;;;47.53;24.52;;;;;;;-1.20;100.00;101509.97;5072991;28;20041;-67
2021/12/15 06:02:53;;;;;;;52.20;24.83;;;;;;;-1.16;100.00;101512.63;5072922;28;20074;-69
2021/12/15 06:05:23;;;;;;;48.38;23.88;;;;;;;-1.26;100.00;101518.63;5073363;28;20044;-67
2021/12/15 06:07:51;;;;;;;46.35;25.50;;;;;;;-1.20;100.00;101521.31;5071605;28;20048;-68
2021/12/15 06:10:24;;;;;;;49.35;25.65;;;;;;;-1.27;100.00;101521.25;5073264;28;20059;-71
2021/12/15 06:12:55;;;;;;;50.05;26.38;;;;;;;-1.29;100.00;101526.47;5072725;28;20756;-73
2021/12/15 06:15:25;;;;;;;50.70;26.17;;;;;;;-1.29;100.00;101518.63;5072972;28;20036;-73
2021/12/15 06:17:59;;;;;;;51.20;27.48;;;;;;;-1.41;100.00;101525.50;5073004;28;20835;-73
2021/12/15 06:20:31;;;;;;;56.63;28.38;;;;;;;-1.38;100.00;101513.28;5072934;28;20102;-73
2021/12/15 06:23:05;;;;;;;59.00;28.23;;;;;;;-1.24;100.00;101516.06;5073207;28;20044;-74
2021/12/15 06:25:33;;;;;;;;;;;;;;;-1.36;100.00;101511.56;5073860;28;20040;-73
2021/12/15 06:28:01;;;;;;;64.05;27.25;;;;;;;-1.44;100.00;101515.88;5073202;28;20015;-72
2021/12/15 06:30:30;;;;;;;71.30;30.42;;;;;;;-1.48;100.00;101524.56;5073051;28;20048;-72
2021/12/15 06:32:58;;;;;;;69.97;31.35;;;;;;;-1.42;100.00;101521.13;5072890;28;20453;-72
2021/12/15 06:35:27;;;;;;;73.47;32.63;;;;;;;-1.45;100.00;101524.56;5073066;28;20051;-71
2021/12/15 06:37:56;;;;;;;81.50;33.88;;;;;;;-1.62;100.00;101536.63;5072589;28;20087;-71
2021/12/15 06:40:25;;;;;;;79.50;33.92;;;;;;;-1.68;100.00;101536.56;5072962;28;20049;-72
2021/12/15 06:42:53;;;;;;;75.80;33.05;;;;;;;-1.56;100.00;101528.84;5073036;28;20044;-73
2021/12/15 06:45:28;;;;;;;73.78;32.80;;;;;;;-1.52;100.00;101528.00;5072822;28;20044;-71
2021/12/15 06:59:04;;;;;;;85.88;35.05;;;;;;;-1.27;100.00;101550.03;5073234;28;20470;-74
2021/12/15 07:01:32;;;;;;;166.07;36.90;;;;;;;-1.18;100.00;101540.53;5071597;28;20040;-73
2021/12/15 07:04:01;;;;;;;120.28;37.25;;;;;;;-1.24;100.00;101545.72;5072599;28;20047;-72
2021/12/15 07:06:29;;;;;;;183.80;39.33;;;;;;;-1.21;100.00;101545.75;5072723;28;20375;-71
2021/12/15 07:08:59;;;;;;;95.13;35.28;;;;;;;-1.23;100.00;101543.97;5072597;28;20048;-75
2021/12/15 07:11:27;;;;;;;196.50;38.78;;;;;;;-1.26;100.00;101542.19;5072797;28;20040;-72
2021/12/15 07:13:56;;;;;;;96.40;35.40;;;;;;;-1.12;100.00;101549.31;5072502;28;20040;-72
2021/12/15 07:16:27;;;;;;;201.23;40.20;;;;;;;-1.13;100.00;101556.28;5072688;28;20044;-71
2021/12/15 07:19:07;;;;;;;149.45;37.80;;;;;;;-1.13;100.00;101542.31;5072529;28;20068;-70
2021/12/15 07:21:40;;;;;;;126.10;36.53;;;;;;;-1.16;100.00;101548.38;5072278;28;20051;-70
2021/12/15 07:24:10;;;;;;;138.60;36.88;;;;;;;-1.25;100.00;101554.44;5072707;28;20057;-71
2021/12/15 07:26:38;;;;;;;129.32;36.83;;;;;;;-1.25;100.00;101551.81;5072668;28;20037;-70
2021/12/15 07:29:07;;;;;;;106.65;36.97;;;;;;;-1.30;100.00;101561.38;5075909;28;20478;-71
2021/12/15 07:31:35;;;;;;;142.98;37.20;;;;;;;-1.33;100.00;101553.50;5076729;28;20051;-75
2021/12/15 07:34:04;;;;;;;102.53;36.47;;;;;;;-1.19;100.00;101554.47;5076383;28;20048;-74
2021/12/15 07:36:32;;;;;;;95.82;35.75;;;;;;;-1.08;100.00;101562.41;5076743;28;20098;-74
2021/12/15 07:39:00;;;;;;;92.53;37.63;;;;;;;-1.20;100.00;101562.31;5075765;28;20048;-74
2021/12/15 07:41:37;;;;;;;118.72;38.42;;;;;;;-1.26;100.00;101568.38;5075326;28;20516;-73
2021/12/15 07:44:06;;;;;;;119.82;35.85;;;;;;;-1.20;100.00;101578.91;5081101;28;20036;-73
2021/12/15 07:46:49;;;;;;;184.03;38.87;;;;;;;-1.33;100.00;101573.56;5076192;28;20032;-75
2021/12/15 07:49:19;;;;;;;149.10;38.95;;;;;;;-1.31;100.00;101575.31;5075916;28;20102;-72
2021/12/15 07:51:48;;;;;;;104.82;38.47;;;;;;;-1.12;100.00;101580.72;5075174;28;20048;-72
2021/12/15 07:54:18;;;;;;;108.40;38.85;;;;;;;-1.04;100.00;101581.69;5076577;28;20044;-72
2021/12/15 07:56:48;;;;;;;110.85;39.63;;;;;;;-0.98;100.00;101585.19;5075621;28;20504;-71
2021/12/15 07:59:18;;;;;;;99.97;39.65;;;;;;;-1.02;100.00;101588.66;5076427;28;20425;-74
2021/12/15 08:01:46;;;;;;;127.20;39.15;;;;;;;-1.05;100.00;101587.78;5075396;28;20049;-71
2021/12/15 08:04:17;;;;;;;121.60;40.38;;;;;;;-1.08;100.00;101598.22;5075918;28;20413;-72
2021/12/15 08:06:46;;;;;;;122.55;40.20;;;;;;;-1.11;100.00;101593.81;5075201;28;20079;-72
2021/12/15 08:09:16;;;;;;;110.45;40.78;;;;;;;-1.15;100.00;101594.69;5075329;28;20478;-72
2021/12/15 08:11:45;;;;;;;133.38;42.92;;;;;;;-1.12;100.00;101599.06;5075094;28;20478;-74
2021/12/15 08:14:15;;;;;;;142.82;44.80;;;;;;;-1.22;100.00;101595.47;5075642;28;20098;-74
2021/12/15 08:16:43;;;;;;;134.98;44.47;;;;;;;-1.17;100.00;101610.34;5075417;28;20485;-75
2021/12/15 08:19:15;;;;;;;113.03;40.20;;;;;;;-1.11;100.00;101609.53;5075297;28;20040;-73
2021/12/15 08:21:44;;;;;;;133.85;43.17;;;;;;;-1.16;100.00;101611.22;5075192;28;20044;-73
2021/12/15 08:24:12;;;;;;;143.13;41.63;;;;;;;-1.08;100.00;101614.78;5075106;28;20486;-76
2021/12/15 08:26:40;;;;;;;115.35;41.25;;;;;;;-0.99;100.00;101621.84;5075222;28;20386;-74
2021/12/15 08:29:11;;;;;;;105.18;39.92;;;;;;;-0.93;100.00;101625.41;5075175;28;20091;-73
2021/12/15 08:31:41;;;;;;;125.03;43.92;;;;;;;-0.92;100.00;101618.44;5075217;28;20485;-73
2021/12/15 08:34:10;;;;;;;126.68;42.08;;;;;;;-0.88;100.00;101628.94;5075236;28;20037;-72
2021/12/15 08:36:39;;;;;;;182.15;44.58;;;;;;;-0.92;100.00;101628.91;5075020;28;20048;-72
2021/12/15 08:39:09;;;;;;;168.95;45.95;;;;;;;-0.83;100.00;101626.38;5074354;28;20051;-73
2021/12/15 08:41:37;;;;;;;182.85;47.03;;;;;;;-0.68;100.00;101634.34;5075129;28;20059;-73
2021/12/15 08:44:08;;;;;;;138.32;45.63;;;;;;;-0.45;100.00;101633.66;5073717;28;20595;-74
2021/12/15 08:46:39;;;;;;;145.20;44.58;;;;;;;-0.48;100.00;101634.53;5074853;28;20041;-74
2021/12/15 08:49:16;;;;;;;155.13;45.05;;;;;;;-0.32;100.00;101636.34;5074710;28;20044;-72
2021/12/15 08:51:45;;;;;;;125.20;42.25;;;;;;;-0.30;100.00;101636.34;5075079;28;20036;-73
2021/12/15 08:54:17;;;;;;;161.73;43.65;;;;;;;-0.23;100.00;101645.16;5074479;28;20448;-73
2021/12/15 08:56:47;;;;;;;167.65;43.63;;;;;;;-0.31;100.00;101640.72;5074886;28;20402;-73
2021/12/15 08:59:16;;;;;;;245.40;47.05;;;;;;;-0.43;100.00;101638.03;5074747;28;20082;-73
2021/12/15 09:01:45;;;;;;;126.43;43.67;;;;;;;-0.27;100.00;101632.91;5074539;28;20045;-74
2021/12/15 09:04:16;;;;;;;150.10;44.75;;;;;;;-0.34;100.00;101626.72;5074526;28;20036;-73
2021/12/15 09:06:45;;;;;;;152.32;43.05;;;;;;;-0.36;100.00;101633.72;5074383;28;20036;-72
2021/12/15 09:09:16;;;;;;;143.25;43.63;;;;;;;-0.26;100.00;101630.28;5074364;28;20040;-72
2021/12/15 09:11:44;;;;;;;112.43;40.13;;;;;;;-0.10;100.00;101629.47;5074565;28;20049;-72
2021/12/15 09:14:13;;;;;;;126.95;39.38;;;;;;;-0.10;100.00;101632.09;5074377;28;20044;-73
2021/12/15 09:16:48;;;;;;;128.18;42.33;;;;;;;-0.19;100.00;101636.41;5074110;28;20044;-73
2021/12/15 09:19:18;;;;;;;104.95;40.22;;;;;;;-0.13;100.00;101629.47;5074172;28;20048;-73
2021/12/15 09:21:51;;;;;;;115.72;38.83;;;;;;;-0.10;100.00;101633.84;5074254;28;20049;-73
2021/12/15 09:24:21;;;;;;;96.47;38.05;;;;;;;-0.03;100.00;101627.78;5073973;28;20044;-72
2021/12/15 09:26:51;;;;;;;90.13;37.42;;;;;;;0.16;100.00;101628.75;5073638;28;20044;-74
2021/12/15 09:29:19;;;;;;;115.10;39.53;;;;;;;0.24;100.00;101637.53;5074070;28;20044;-73
2021/12/15 09:31:48;;;;;;;106.60;39.47;;;;;;;0.15;100.00;101627.00;5074031;28;20036;-73
2021/12/15 09:34:18;;;;;;;132.75;40.83;;;;;;;0.14;100.00;101633.09;5074122;28;20041;-74
2021/12/15 09:36:50;;;;;;;138.15;41.45;;;;;;;-0.05;100.00;101625.16;5074212;28;20128;-73
2021/12/15 09:39:21;;;;;;;114.07;42.13;;;;;;;0.07;100.00;101628.69;5073763;28;20424;-74
2021/12/15 09:41:51;;;;;;;110.15;41.22;;;;;;;0.15;100.00;101622.63;5073903;28;20040;-73
2021/12/15 09:44:23;;;;;;;99.32;41.08;;;;;;;0.07;100.00;101618.19;5073762;28;20127;-73
2021/12/15 09:47:18;;;;;;;131.70;38.85;;;;;;;0.26;100.00;101620.03;5073434;28;20079;-74
2021/12/15 10:04:06;;;;;;;88.85;38.25;;;;;;;0.19;100.00;101628.75;5073683;28;20044;-73
2021/12/15 10:06:49;;;;;;;116.68;39.65;;;;;;;0.42;100.00;101629.72;5072748;28;20451;-73
2021/12/15 10:12:32;;;;;;;93.15;38.65;;;;;;;0.67;100.00;101627.16;5073296;28;20052;-72
2021/12/15 10:18:01;;;;;;;84.70;38.00;;;;;;;0.73;100.00;101621.91;5072279;28;20409;-77
2021/12/15 10:20:31;;;;;;;102.55;37.75;;;;;;;0.61;100.00;101621.91;5073045;28;20490;-73
2021/12/15 10:23:07;;;;;;;92.47;38.38;;;;;;;0.55;100.00;101622.75;5072592;28;20443;-74
2021/12/15 10:25:38;;;;;;;116.82;39.00;;;;;;;0.71;100.00;101634.19;5073030;28;20040;-74
2021/12/15 10:28:11;;;;;;;94.47;37.85;;;;;;;0.41;100.00;101627.09;5072805;28;20040;-73
2021/12/15 10:30:42;;;;;;;106.35;38.95;;;;;;;0.52;100.00;101631.50;5072958;28;20482;-73
2021/12/15 10:33:18;;;;;;;79.05;35.03;;;;;;;0.70;100.00;101635.06;5073020;28;20408;-74
2021/12/15 10:35:48;;;;;;;93.72;39.63;;;;;;;0.67;100.00;101633.28;5073082;28;20049;-73
2021/12/15 10:38:24;;;;;;;86.55;38.90;;;;;;;0.84;100.00;101626.31;5072548;28;20045;-74
2021/12/15 10:41:07;;;;;;;87.05;39.08;;;;;;;0.93;100.00;101635.97;5071895;28;20056;-74
2021/12/15 10:43:39;;;;;;;90.15;39.58;;;;;;;0.98;100.00;101634.22;5072958;28;20066;-74
2021/12/15 10:46:10;;;;;;;84.78;38.30;;;;;;;1.09;100.00;101632.47;5073062;28;20040;-74
2021/12/15 10:48:47;;;;;;;85.90;39.53;;;;;;;1.14;100.00;101630.72;5072973;28;20379;-73
2021/12/15 10:51:33;;;;;;;89.03;41.13;;;;;;;1.21;100.00;101625.47;5072910;28;20045;-74
2021/12/15 10:54:09;;;;;;;83.15;39.92;;;;;;;1.28;100.00;101633.34;5073025;28;20044;-74
2021/12/15 10:56:39;;;;;;;84.60;42.05;;;;;;;1.19;100.00;101627.22;5073235;28;20040;-73
2021/12/15 10:59:09;;;;;;;85.63;38.92;;;;;;;1.25;100.00;101628.06;5073031;28;20040;-74
2021/12/15 11:01:42;;;;;;;87.22;40.15;;;;;;;1.37;100.00;101627.22;5073092;28;20144;-72
2021/12/15 11:04:42;;;;;;;82.55;39.70;;;;;;;1.51;100.00;101625.44;5076588;28;20474;-73
2021/12/15 11:07:18;;;;;;;80.40;38.40;;;;;;;1.57;100.00;101627.19;5068606;28;20080;-75
2021/12/15 11:09:51;;;;;;;86.60;39.63;;;;;;;1.83;100.00;101625.38;5076521;28;20421;-74
2021/12/15 11:12:22;;;;;;;79.72;38.15;;;;;;;1.81;100.00;101628.91;5075493;28;20052;-72
2021/12/15 11:14:55;;;;;;;81.55;38.30;;;;;;;2.02;100.00;101626.19;5076483;28;20102;-74
2021/12/15 11:17:25;;;;;;;78.60;38.08;;;;;;;2.09;100.00;101635.84;5076594;28;20149;-74
2021/12/15 11:20:02;;;;;;;78.55;38.90;;;;;;;2.01;100.00;101622.69;5076743;28;20040;-74
2021/12/15 11:22:44;;;;;;;71.93;36.92;;;;;;;2.14;100.00;101627.94;5076369;28;20044;-73
2021/12/15 11:25:21;;;;;;;70.07;36.73;;;;;;;2.10;100.00;101616.53;5076489;28;20087;-73
2021/12/15 11:27:52;;;;;;;70.82;35.47;;;;;;;2.13;100.00;101611.28;5076491;28;20048;-73
2021/12/15 11:30:25;;;;;;;66.70;34.20;;;;;;;2.27;100.00;101609.44;5076236;28;20040;-74
2021/12/15 11:32:55;;;;;;;70.18;35.28;;;;;;;2.34;100.00;101609.41;5076494;28;20072;-74
2021/12/15 11:35:28;;;;;;;69.53;35.67;;;;;;;2.42;100.00;101611.13;5076365;28;20417;-73
2021/12/15 11:38:01;;;;;;;70.05;35.55;;;;;;;2.47;100.00;101604.06;5076296;28;20051;-73
2021/12/15 11:40:36;;;;;;;65.25;32.85;;;;;;;2.47;100.00;101597.94;5076452;28;20084;-75
2021/12/15 11:43:05;;;;;;;61.33;32.13;;;;;;;2.56;100.00;101595.25;5075905;28;20401;-75
2021/12/15 11:45:36;;;;;;;62.65;33.58;;;;;;;2.47;100.00;101604.06;5076088;28;20477;-73
2021/12/15 11:48:26;;;;;;;67.22;33.65;;;;;;;2.52;100.00;101598.78;5076054;28;20450;-74
2021/12/15 11:50:57;;;;;;;66.13;32.88;;;;;;;2.55;100.00;101598.75;5073262;28;20059;-74
2021/12/15 11:53:41;;;;;;;64.57;33.63;;;;;;;2.51;100.00;101597.91;5075756;28;20049;-74
2021/12/15 11:56:16;;;;;;;65.28;32.22;;;;;;;2.58;100.00;101593.47;5076026;28;20112;-74
2021/12/15 11:58:45;;;;;;;60.70;30.45;;;;;;;2.69;100.00;101591.63;5075904;28;20481;-73
2021/12/15 12:01:40;;;;;;;60.75;32.00;;;;;;;2.87;100.00;101593.28;5075366;28;20055;-74
2021/12/15 12:04:15;;;;;;;58.95;30.63;;;;;;;2.81;100.00;101595.97;5075550;28;20135;-74
2021/12/15 12:06:45;;;;;;;65.78;31.15;;;;;;;2.85;100.00;101592.41;5075835;28;20055;-74
2021/12/15 12:09:16;;;;;;;58.63;29.45;;;;;;;3.00;100.00;101604.63;5075574;28;20048;-74
2021/12/15 12:11:52;;;;;;;62.35;30.98;;;;;;;2.96;100.00;101598.47;5075773;28;20040;-74
2021/12/15 12:14:38;;;;;;;61.85;30.23;;;;;;;2.98;100.00;101594.06;5074560;28;20044;-74
2021/12/15 12:17:12;;;;;;;56.05;30.08;;;;;;;3.05;100.00;101589.63;5074098;28;20057;-74